createdAt,value
2023-11-25T00:00:23.194Z,948.7810059
2023-11-25T00:01:25.211Z,948.8045044
2023-11-25T00:02:26.806Z,948.7835693
2023-11-25T00:03:28.313Z,948.776123
2023-11-25T00:04:30.492Z,948.81073
2023-11-25T00:05:32.057Z,948.7941895
2023-11-25T00:06:34.056Z,948.7892456
2023-11-25T00:07:35.615Z,948.7993774
2023-11-25T00:08:37.699Z,948.7912598
2023-11-25T00:09:39.119Z,948.7254639
2023-11-25T00:11:21.783Z,948.7266235
2023-11-25T00:12:13.299Z,948.7288818
2023-11-25T00:13:15.175Z,948.7176514
2023-11-25T00:14:16.860Z,948.7614136
2023-11-25T00:15:19.124Z,948.7293091
2023-11-25T00:16:21.168Z,948.751709
2023-11-25T00:17:23.191Z,948.7421265
2023-11-25T00:18:24.753Z,948.7645874
2023-11-25T00:19:26.566Z,948.8417358
2023-11-25T00:20:28.140Z,948.8240356
2023-11-25T00:21:29.766Z,948.8215332
2023-11-25T00:22:31.599Z,948.8189087
2023-11-25T00:23:33.128Z,948.8418579
2023-11-25T00:24:35.131Z,948.8638306
2023-11-25T00:25:36.686Z,948.8253174
2023-11-25T00:26:38.102Z,948.9194336
2023-11-25T00:28:10.350Z,948.8742065
2023-11-25T00:29:12.403Z,948.9084473
2023-11-25T00:30:14.251Z,948.8861084
2023-11-25T00:31:16.380Z,948.9465332
2023-11-25T00:32:18.105Z,948.9226685
2023-11-25T00:33:20.057Z,948.8972168
2023-11-25T00:34:22.163Z,948.9162598
2023-11-25T00:35:25.165Z,948.9619751
2023-11-25T00:36:26.725Z,948.9558105
2023-11-25T00:37:29.046Z,948.991394
2023-11-25T00:38:30.676Z,948.9473267
2023-11-25T00:39:32.252Z,948.9679565
2023-11-25T00:40:33.564Z,948.9737549
2023-11-25T00:41:35.502Z,948.9408569
2023-11-25T00:42:37.135Z,948.9788818
2023-11-25T00:43:38.829Z,949.0254517
2023-11-25T00:45:11.859Z,948.9606934
2023-11-25T00:46:13.644Z,948.9768677
2023-11-25T00:47:15.204Z,948.9628906
2023-11-25T00:48:16.626Z,948.9539795
2023-11-25T00:49:18.722Z,948.9632568
2023-11-25T00:50:20.145Z,948.8825073
2023-11-25T00:51:21.862Z,948.9068604
2023-11-25T00:52:23.579Z,948.8425293
2023-11-25T00:53:25.178Z,948.8359375
2023-11-25T00:54:27.061Z,948.8538818
2023-11-25T00:55:28.652Z,948.8554688
2023-11-25T00:56:30.137Z,948.8822021
2023-11-25T00:57:31.657Z,948.8847046
2023-11-25T00:58:33.432Z,948.9115601
2023-11-25T00:59:35.094Z,948.9179688
2023-11-25T01:00:36.608Z,948.9435425
2023-11-25T01:01:38.406Z,948.9240112
2023-11-25T01:03:11.615Z,948.8883057
2023-11-25T01:04:13.192Z,948.9788818
2023-11-25T01:05:14.678Z,948.8851318
2023-11-25T01:06:16.654Z,948.9545288
2023-11-25T01:07:18.214Z,948.9356079
2023-11-25T01:08:19.939Z,948.9547119
2023-11-25T01:09:22.158Z,948.9412231
2023-11-25T01:10:23.683Z,948.9650269
2023-11-25T01:11:25.157Z,948.9285889
2023-11-25T01:12:26.596Z,948.980957
2023-11-25T01:13:28.819Z,948.977356
2023-11-25T01:14:29.813Z,948.9609985
2023-11-25T01:15:32.168Z,948.9353027
2023-11-25T01:16:33.769Z,948.9280396
2023-11-25T01:17:35.410Z,948.9760742
2023-11-25T01:18:37.050Z,949.0109253
2023-11-25T01:19:39.639Z,949.1056519
2023-11-25T01:21:12.135Z,949.0795288
2023-11-25T01:22:14.671Z,949.0456543
2023-11-25T01:23:16.191Z,949.0596924
2023-11-25T01:24:17.647Z,949.0828247
2023-11-25T01:25:19.681Z,949.1429443
2023-11-25T01:26:51.268Z,949.2701416
2023-11-25T01:28:25.207Z,949.2520142
2023-11-25T01:29:26.647Z,949.3084106
2023-11-25T01:30:28.607Z,949.2814331
2023-11-25T01:31:30.246Z,949.2619019
2023-11-25T01:32:31.951Z,949.262207
2023-11-25T01:33:33.784Z,949.274231
2023-11-25T01:34:35.998Z,949.2683105
2023-11-25T01:35:37.772Z,949.2613525
2023-11-25T01:37:10.946Z,949.265564
2023-11-25T01:38:12.682Z,949.2460327
2023-11-25T01:39:13.656Z,949.2349854
2023-11-25T01:40:15.414Z,949.2351074
2023-11-25T01:41:17.152Z,949.2270508
2023-11-25T01:42:19.170Z,949.1976318
2023-11-25T01:43:20.723Z,949.1869507
2023-11-25T01:44:22.907Z,949.171814
2023-11-25T01:45:24.727Z,949.2203369
2023-11-25T01:46:26.162Z,949.2054443
2023-11-25T01:47:28.139Z,949.2070313
2023-11-25T01:48:29.688Z,949.1470337
2023-11-25T01:49:32.308Z,949.1716309
2023-11-25T01:50:33.673Z,949.1867065
2023-11-25T01:51:35.680Z,949.2156372
2023-11-25T01:52:37.244Z,949.2143555
2023-11-25T01:53:38.922Z,949.2941895
2023-11-25T01:55:11.713Z,949.2626343
2023-11-25T01:56:13.638Z,949.2439575
2023-11-25T01:57:15.134Z,949.2840576
2023-11-25T01:58:16.933Z,949.2650146
2023-11-25T01:59:18.627Z,949.2489014
2023-11-25T02:00:20.505Z,949.2739258
2023-11-25T02:01:22.177Z,949.2670288
2023-11-25T02:02:23.846Z,949.24646
2023-11-25T02:03:25.675Z,949.2798462
2023-11-25T02:04:27.235Z,949.2340088
2023-11-25T02:05:28.390Z,949.2432861
2023-11-25T02:06:30.128Z,949.1526489
2023-11-25T02:07:32.112Z,949.1537476
2023-11-25T02:08:33.553Z,949.1647949
2023-11-25T02:09:36.090Z,949.1771851
2023-11-25T02:10:37.669Z,949.2084961
2023-11-25T02:12:10.642Z,949.1835938
2023-11-25T02:13:12.714Z,949.2078857
2023-11-25T02:14:14.651Z,949.2644653
2023-11-25T02:15:16.256Z,949.2131348
2023-11-25T02:16:17.565Z,949.1791382
2023-11-25T02:17:18.577Z,949.2053223
2023-11-25T02:18:19.840Z,949.28125
2023-11-25T02:19:21.661Z,949.243042
2023-11-25T02:20:23.654Z,949.2041626
2023-11-25T02:21:25.624Z,949.1989136
2023-11-25T02:22:27.180Z,949.1759644
2023-11-25T02:23:29.131Z,949.1420288
2023-11-25T02:24:30.629Z,949.1707764
2023-11-25T02:25:32.674Z,949.1151733
2023-11-25T02:26:34.171Z,949.1542969
2023-11-25T02:27:35.929Z,949.1209106
2023-11-25T02:28:37.652Z,949.1231079
2023-11-25T02:30:10.650Z,949.0998535
2023-11-25T02:31:11.711Z,949.0909424
2023-11-25T02:32:14.324Z,949.1257935
2023-11-25T02:33:16.186Z,949.1132813
2023-11-25T02:34:17.200Z,949.0750122
2023-11-25T02:35:18.587Z,949.1115723
2023-11-25T02:36:20.668Z,949.0023193
2023-11-25T02:37:23.200Z,948.9879761
2023-11-25T02:38:24.103Z,949.0028076
2023-11-25T02:39:26.446Z,948.9004517
2023-11-25T02:40:28.115Z,948.9399414
2023-11-25T02:41:30.185Z,949.062561
2023-11-25T02:42:31.608Z,949.0328369
2023-11-25T02:43:33.148Z,949.0412598
2023-11-25T02:44:34.699Z,949
2023-11-25T02:45:36.378Z,948.9848633
2023-11-25T02:47:09.696Z,949.0847778
2023-11-25T02:48:11.781Z,949.0565796
2023-11-25T02:49:13.186Z,949.0504761
2023-11-25T02:50:15.536Z,949.0582886
2023-11-25T02:51:17.156Z,949.0346069
2023-11-25T02:52:18.677Z,949.0530396
2023-11-25T02:53:20.462Z,949.0212402
2023-11-25T02:54:22.224Z,949.0665894
2023-11-25T02:55:24.667Z,949.0200195
2023-11-25T02:56:26.046Z,949.0307007
2023-11-25T02:57:28.046Z,949.0471191
2023-11-25T02:58:29.703Z,948.9977417
2023-11-25T02:59:31.954Z,949.0563965
2023-11-25T03:00:33.660Z,949.114624
2023-11-25T03:01:35.500Z,949.1512451
2023-11-25T03:02:37.291Z,949.1549072
2023-11-25T03:04:09.960Z,949.1681519
2023-11-25T03:05:11.649Z,949.1947021
2023-11-25T03:06:13.524Z,949.217041
2023-11-25T03:07:15.352Z,949.2523193
2023-11-25T03:08:17.506Z,949.2764282
2023-11-25T03:09:19.126Z,949.2915649
2023-11-25T03:10:20.665Z,949.2720947
2023-11-25T03:11:22.677Z,949.2913818
2023-11-25T03:12:24.143Z,949.3565063
2023-11-25T03:13:26.538Z,949.3861084
2023-11-25T03:14:28.112Z,949.362793
2023-11-25T03:15:29.701Z,949.3849487
2023-11-25T03:16:32.264Z,949.4089355
2023-11-25T03:17:33.670Z,949.3851318
2023-11-25T03:18:35.659Z,949.3939209
2023-11-25T03:19:37.208Z,949.3790894
2023-11-25T03:21:09.487Z,949.3574219
2023-11-25T03:22:11.691Z,949.3669434
2023-11-25T03:23:13.657Z,949.3917236
2023-11-25T03:24:15.226Z,949.3920288
2023-11-25T03:25:17.090Z,949.3881836
2023-11-25T03:26:18.539Z,949.3731079
2023-11-25T03:27:20.664Z,949.4229736
2023-11-25T03:28:22.133Z,949.3657837
2023-11-25T03:29:23.653Z,949.3751831
2023-11-25T03:30:25.637Z,949.3911133
2023-11-25T03:31:27.125Z,949.3427124
2023-11-25T03:32:28.323Z,949.3458862
2023-11-25T03:33:29.405Z,949.3547363
2023-11-25T03:34:31.493Z,949.2949829
2023-11-25T03:35:33.246Z,949.2546997
2023-11-25T03:36:34.655Z,949.3132935
2023-11-25T03:37:36.711Z,949.2102051
2023-11-25T03:39:09.129Z,949.2438965
2023-11-25T03:40:11.664Z,949.2550049
2023-11-25T03:41:13.148Z,949.2372437
2023-11-25T03:42:44.961Z,949.3540649
2023-11-25T03:44:17.647Z,949.3760376
2023-11-25T03:45:19.665Z,949.4021606
2023-11-25T03:46:21.185Z,949.3699951
2023-11-25T03:47:22.936Z,949.385498
2023-11-25T03:48:24.722Z,949.3096924
2023-11-25T03:49:27.028Z,949.2919312
2023-11-25T03:50:28.678Z,949.3414307
2023-11-25T03:51:30.216Z,949.3164063
2023-11-25T03:52:32.205Z,949.28302
2023-11-25T03:53:33.602Z,949.300293
2023-11-25T03:54:35.653Z,949.3551636
2023-11-25T03:55:38.067Z,949.3104858
2023-11-25T03:57:11.198Z,949.2960815
2023-11-25T03:58:12.626Z,949.2991333
2023-11-25T03:59:14.642Z,949.2974854
2023-11-25T04:00:16.595Z,949.277832
2023-11-25T04:01:18.099Z,949.3065796
2023-11-25T04:02:19.860Z,949.2954102
2023-11-25T04:03:21.540Z,949.303894
2023-11-25T04:04:23.162Z,949.3256226
2023-11-25T04:05:54.845Z,949.3032227
2023-11-25T04:07:28.248Z,949.3398438
2023-11-25T04:08:29.696Z,949.3128052
2023-11-25T04:09:31.626Z,949.3665771
2023-11-25T04:10:33.154Z,949.3677979
2023-11-25T04:11:35.103Z,949.3248291
2023-11-25T04:12:36.550Z,949.3551636
2023-11-25T04:14:09.626Z,949.303772
2023-11-25T04:15:11.150Z,949.3325806
2023-11-25T04:16:13.004Z,949.3421631
2023-11-25T04:17:14.751Z,949.3155518
2023-11-25T04:18:16.502Z,949.2832642
2023-11-25T04:19:18.201Z,949.2851563
2023-11-25T04:20:19.646Z,949.2706299
2023-11-25T04:21:21.280Z,949.265686
2023-11-25T04:22:22.759Z,949.2764282
2023-11-25T04:23:23.923Z,949.3027344
2023-11-25T04:24:25.543Z,949.2910767
2023-11-25T04:25:27.738Z,949.2354736
2023-11-25T04:26:29.557Z,949.1956177
2023-11-25T04:27:31.109Z,949.2770386
2023-11-25T04:28:33.124Z,949.257019
2023-11-25T04:29:34.603Z,949.2974854
2023-11-25T04:30:36.282Z,949.2860718
2023-11-25T04:32:09.301Z,949.2972412
2023-11-25T04:33:11.175Z,949.3009644
2023-11-25T04:34:12.637Z,949.3192749
2023-11-25T04:35:14.634Z,949.3545532
2023-11-25T04:36:19.157Z,949.3779907
2023-11-25T04:37:18.578Z,949.3520508
2023-11-25T04:38:20.116Z,949.4348145
2023-11-25T04:39:22.166Z,949.3972168
2023-11-25T04:40:23.979Z,949.4032593
2023-11-25T04:41:25.670Z,949.4110718
2023-11-25T04:42:27.502Z,949.3629761
2023-11-25T04:43:29.186Z,949.3945313
2023-11-25T04:44:30.673Z,949.4543457
2023-11-25T04:45:32.624Z,949.4551392
2023-11-25T04:46:34.161Z,949.4343872
2023-11-25T04:47:36.684Z,949.3897705
2023-11-25T04:49:09.051Z,949.3531494
2023-11-25T04:50:11.627Z,949.3462524
2023-11-25T04:51:13.187Z,949.3353271
2023-11-25T04:52:15.188Z,949.3833008
2023-11-25T04:53:16.633Z,949.3886108
2023-11-25T04:54:18.636Z,949.385376
2023-11-25T04:55:20.190Z,949.3796997
2023-11-25T04:56:21.786Z,949.3551636
2023-11-25T04:57:23.622Z,949.3400879
2023-11-25T04:58:25.303Z,949.3154907
2023-11-25T04:59:26.467Z,949.3870239
2023-11-25T05:00:28.089Z,949.3563843
2023-11-25T05:01:30.143Z,949.3842773
2023-11-25T05:02:31.875Z,949.3458862
2023-11-25T05:03:33.648Z,949.3543091
2023-11-25T05:04:35.800Z,949.3751831
2023-11-25T05:05:37.162Z,949.3565674
2023-11-25T05:07:10.165Z,949.3323364
2023-11-25T05:08:11.700Z,949.3682861
2023-11-25T05:09:13.561Z,949.3479614
2023-11-25T05:10:15.192Z,949.3703003
2023-11-25T05:11:16.665Z,949.4304199
2023-11-25T05:12:18.667Z,949.4003296
2023-11-25T05:13:20.106Z,949.3911133
2023-11-25T05:14:21.918Z,949.4006348
2023-11-25T05:15:23.971Z,949.3779907
2023-11-25T05:16:25.543Z,949.3067017
2023-11-25T05:17:27.456Z,949.3406372
2023-11-25T05:18:29.604Z,949.3007202
2023-11-25T05:19:31.625Z,949.2385864
2023-11-25T05:20:33.368Z,949.3100586
2023-11-25T05:21:35.198Z,949.296936
2023-11-25T05:23:39.212Z,949.2817383
2023-11-25T05:25:12.615Z,949.2940674
2023-11-25T05:26:14.142Z,949.2589111
2023-11-25T05:27:15.061Z,949.2722168
2023-11-25T05:28:16.750Z,949.2848511
2023-11-25T05:29:18.647Z,949.2901611
2023-11-25T05:30:20.513Z,949.3035889
2023-11-25T05:31:22.164Z,949.3284302
2023-11-25T05:32:23.694Z,949.2857666
2023-11-25T05:33:25.336Z,949.3352051
2023-11-25T05:34:27.164Z,949.3432617
2023-11-25T05:35:29.160Z,949.3384399
2023-11-25T05:36:31.299Z,949.3886719
2023-11-25T05:37:33.512Z,949.4508057
2023-11-25T05:38:34.547Z,949.3864746
2023-11-25T05:39:36.130Z,949.4387207
2023-11-25T05:41:09.115Z,949.4575806
2023-11-25T05:42:10.642Z,949.4751587
2023-11-25T05:43:12.722Z,949.4870605
2023-11-25T05:44:14.110Z,949.5007324
2023-11-25T05:45:15.908Z,949.4959106
2023-11-25T05:46:17.729Z,949.5203247
2023-11-25T05:47:19.549Z,949.5454712
2023-11-25T05:48:21.123Z,949.5445557
2023-11-25T05:49:22.678Z,949.5653687
2023-11-25T05:50:24.019Z,949.590332
2023-11-25T05:51:26.081Z,949.5889893
2023-11-25T05:52:28.078Z,949.6231079
2023-11-25T05:53:29.612Z,949.597168
2023-11-25T05:54:31.456Z,949.6551514
2023-11-25T05:55:33.081Z,949.6964111
2023-11-25T05:56:34.565Z,949.6800537
2023-11-25T05:57:36.837Z,949.6937256
2023-11-25T05:59:09.952Z,949.6887207
2023-11-25T06:00:11.631Z,949.6862793
2023-11-25T06:01:13.597Z,949.6966553
2023-11-25T06:02:15.704Z,949.7017212
2023-11-25T06:03:17.758Z,949.6939087
2023-11-25T06:04:21.930Z,949.6983032
2023-11-25T06:05:21.238Z,949.7139282
2023-11-25T06:06:23.138Z,949.6652832
2023-11-25T06:07:24.793Z,949.6445923
2023-11-25T06:08:26.835Z,949.5996704
2023-11-25T06:09:28.654Z,949.5390625
2023-11-25T06:10:30.621Z,949.5748291
2023-11-25T06:12:02.727Z,949.4576416
2023-11-25T06:13:35.895Z,949.4558105
2023-11-25T06:15:08.266Z,949.5181274
2023-11-25T06:16:10.185Z,949.5166626
2023-11-25T06:17:12.094Z,949.5384521
2023-11-25T06:18:14.814Z,949.5326538
2023-11-25T06:19:15.522Z,949.5217285
2023-11-25T06:20:17.536Z,949.5392456
2023-11-25T06:21:19.125Z,949.5814209
2023-11-25T06:22:21.166Z,949.645752
2023-11-25T06:23:23.123Z,949.6149902
2023-11-25T06:24:24.801Z,949.6246948
2023-11-25T06:25:27.313Z,949.6217041
2023-11-25T06:26:29.162Z,949.6706543
2023-11-25T06:27:30.647Z,949.6461182
2023-11-25T06:28:32.691Z,949.6031494
2023-11-25T06:29:34.094Z,949.5887451
2023-11-25T06:30:35.984Z,949.5968018
2023-11-25T06:32:09.147Z,949.6467285
2023-11-25T06:33:10.985Z,949.6107178
2023-11-25T06:34:12.862Z,949.5900269
2023-11-25T06:35:14.485Z,949.5596313
2023-11-25T06:36:16.199Z,949.5289307
2023-11-25T06:37:17.676Z,949.515625
2023-11-25T06:38:19.175Z,949.4904785
2023-11-25T06:39:20.647Z,949.4815063
2023-11-25T06:40:22.672Z,949.4468994
2023-11-25T06:41:24.326Z,949.4893799
2023-11-25T06:42:26.129Z,949.4837646
2023-11-25T06:43:27.677Z,949.5424805
2023-11-25T06:44:29.396Z,949.5337524
2023-11-25T06:45:31.123Z,949.5393677
2023-11-25T06:46:32.609Z,949.5349731
2023-11-25T06:47:35.171Z,949.5823364
2023-11-25T06:49:08.528Z,949.5855713
2023-11-25T06:50:10.628Z,949.6622925
2023-11-25T06:51:12.136Z,949.65625
2023-11-25T06:52:14.251Z,949.6730957
2023-11-25T06:53:15.659Z,949.6574707
2023-11-25T06:54:17.878Z,949.6606445
2023-11-25T06:55:19.665Z,949.6679688
2023-11-25T06:56:21.699Z,949.6711426
2023-11-25T06:57:23.263Z,949.701416
2023-11-25T06:58:25.139Z,949.7320557
2023-11-25T06:59:27.134Z,949.7409668
2023-11-25T07:00:28.321Z,949.7497559
2023-11-25T07:01:30.695Z,949.7736206
2023-11-25T07:02:32.742Z,949.793457
2023-11-25T07:03:34.205Z,949.8329468
2023-11-25T07:04:35.653Z,949.8995361
2023-11-25T07:06:09.153Z,949.9057617
2023-11-25T07:07:10.669Z,949.9349365
2023-11-25T07:08:12.600Z,949.9371948
2023-11-25T07:09:14.164Z,949.9759521
2023-11-25T07:10:16.614Z,949.9621582
2023-11-25T07:11:18.126Z,949.9606934
2023-11-25T07:12:19.654Z,949.9640503
2023-11-25T07:13:21.675Z,949.944519
2023-11-25T07:14:23.169Z,949.9788208
2023-11-25T07:15:25.379Z,950.0020142
2023-11-25T07:16:27.758Z,950.013916
2023-11-25T07:17:30.215Z,950.0230713
2023-11-25T07:18:31.703Z,950.0501709
2023-11-25T07:19:33.634Z,950.0615845
2023-11-25T07:20:35.103Z,950.1434326
2023-11-25T07:22:07.938Z,950.1593628
2023-11-25T07:23:09.620Z,950.1512451
2023-11-25T07:24:11.162Z,950.1693115
2023-11-25T07:25:13.387Z,950.2206421
2023-11-25T07:26:14.638Z,950.2360229
2023-11-25T07:27:16.636Z,950.2546387
2023-11-25T07:28:18.317Z,950.3110962
2023-11-25T07:29:20.556Z,950.3007813
2023-11-25T07:30:22.184Z,950.3217163
2023-11-25T07:31:23.217Z,950.375
2023-11-25T07:32:25.030Z,950.3822021
2023-11-25T07:33:26.735Z,950.3774414
2023-11-25T07:34:28.937Z,950.3800049
2023-11-25T07:35:30.699Z,950.3688965
2023-11-25T07:36:32.541Z,950.4709473
2023-11-25T07:37:34.409Z,950.4923706
2023-11-25T07:39:06.867Z,950.4829712
2023-11-25T07:40:09.651Z,950.5292358
2023-11-25T07:41:11.613Z,950.5166626
2023-11-25T07:42:13.125Z,950.5765381
2023-11-25T07:43:15.028Z,950.6392212
2023-11-25T07:44:16.625Z,950.5935059
2023-11-25T07:45:18.994Z,950.5978394
2023-11-25T07:46:20.779Z,950.6685791
2023-11-25T07:47:22.605Z,950.6889648
2023-11-25T07:48:53.764Z,950.6936035
2023-11-25T07:50:26.826Z,950.6952515
2023-11-25T07:51:28.164Z,950.6709595
2023-11-25T07:52:29.658Z,950.7020264
2023-11-25T07:53:31.774Z,950.6565552
2023-11-25T07:54:33.597Z,950.685791
2023-11-25T07:55:35.669Z,950.6781006
2023-11-25T07:57:08.165Z,950.6445313
2023-11-25T07:58:10.127Z,950.6925049
2023-11-25T07:59:11.086Z,950.6959229
2023-11-25T08:00:13.058Z,950.7532959
2023-11-25T08:01:14.628Z,950.710022
2023-11-25T08:02:16.312Z,950.7423706
2023-11-25T08:03:17.706Z,950.7504883
2023-11-25T08:04:19.329Z,950.7589111
2023-11-25T08:05:21.805Z,950.7851563
2023-11-25T08:06:24.660Z,950.7578125
2023-11-25T08:07:25.084Z,950.779541
2023-11-25T08:08:26.624Z,950.7857056
2023-11-25T08:09:28.134Z,950.8532715
2023-11-25T08:10:30.235Z,950.8674927
2023-11-25T08:11:31.732Z,950.8879395
2023-11-25T08:12:32.950Z,950.882019
2023-11-25T08:13:34.677Z,950.901001
2023-11-25T08:15:07.653Z,950.9065552
2023-11-25T08:16:09.189Z,950.9006348
2023-11-25T08:17:11.324Z,950.9173584
2023-11-25T08:18:12.717Z,950.9060059
2023-11-25T08:19:14.608Z,950.9190674
2023-11-25T08:20:16.153Z,950.8718262
2023-11-25T08:21:17.614Z,950.8915405
2023-11-25T08:22:19.705Z,950.9230957
2023-11-25T08:23:21.156Z,950.9759521
2023-11-25T08:24:22.892Z,950.9735107
2023-11-25T08:25:24.735Z,951.0446777
2023-11-25T08:26:26.122Z,950.9932861
2023-11-25T08:27:58.293Z,951.0324097
2023-11-25T08:29:31.539Z,951.0232544
2023-11-25T08:30:33.112Z,951.0673218
2023-11-25T08:31:34.709Z,951.1055298
2023-11-25T08:33:07.152Z,951.0734253
2023-11-25T08:34:09.094Z,951.1257935
2023-11-25T08:35:11.262Z,951.0803833
2023-11-25T08:36:12.777Z,951.1184082
2023-11-25T08:37:14.617Z,951.1156006
2023-11-25T08:38:16.176Z,951.1147461
2023-11-25T08:39:17.910Z,951.1156006
2023-11-25T08:40:19.727Z,951.1724854
2023-11-25T08:41:21.147Z,951.1671143
2023-11-25T08:42:23.096Z,951.1490479
2023-11-25T08:43:54.787Z,951.1439209
2023-11-25T08:45:28.654Z,951.1587524
2023-11-25T08:46:30.199Z,951.1063843
2023-11-25T08:47:32.151Z,951.1826782
2023-11-25T08:48:33.671Z,951.0974731
2023-11-25T08:50:06.703Z,951.1066284
2023-11-25T08:51:09.198Z,951.1192017
2023-11-25T08:52:09.891Z,951.0623169
2023-11-25T08:53:11.631Z,951.1217041
2023-11-25T08:54:13.534Z,951.1212769
2023-11-25T08:55:15.120Z,951.1436157
2023-11-25T08:56:16.626Z,951.1515503
2023-11-25T08:57:18.716Z,951.1268921
2023-11-25T08:58:20.601Z,951.1392212
2023-11-25T08:59:22.646Z,951.1306763
2023-11-25T09:00:24.123Z,951.1138916
2023-11-25T09:01:26.622Z,951.1610718
2023-11-25T09:02:28.698Z,951.1176758
2023-11-25T09:03:30.482Z,951.1540527
2023-11-25T09:04:32.084Z,951.1738281
2023-11-25T09:05:33.677Z,951.1702881
2023-11-25T09:07:06.636Z,951.2114258
2023-11-25T09:08:08.163Z,951.2731934
2023-11-25T09:09:09.884Z,951.2195435
2023-11-25T09:10:11.623Z,951.2240601
2023-11-25T09:11:13.656Z,951.2345581
2023-11-25T09:12:15.643Z,951.2109375
2023-11-25T09:13:17.579Z,951.241272
2023-11-25T09:14:19.140Z,951.2281494
2023-11-25T09:15:20.633Z,951.2771606
2023-11-25T09:16:22.218Z,951.2490845
2023-11-25T09:17:23.702Z,951.3060913
2023-11-25T09:18:24.945Z,951.2863159
2023-11-25T09:19:26.717Z,951.3075562
2023-11-25T09:20:28.908Z,951.3380737
2023-11-25T09:21:30.606Z,951.3518677
2023-11-25T09:22:32.795Z,951.2885742
2023-11-25T09:23:34.569Z,951.319519
2023-11-25T09:25:07.649Z,951.3114014
2023-11-25T09:26:09.111Z,951.3378906
2023-11-25T09:27:10.956Z,951.3852539
2023-11-25T09:28:12.506Z,951.3772583
2023-11-25T09:29:15.561Z,951.3726807
2023-11-25T09:30:17.140Z,951.3862305
2023-11-25T09:31:18.642Z,951.3887329
2023-11-25T09:32:20.827Z,951.321228
2023-11-25T09:33:23.094Z,951.3666992
2023-11-25T09:34:25.187Z,951.3995361
2023-11-25T09:35:26.638Z,951.3764038
2023-11-25T09:36:28.620Z,951.3901367
2023-11-25T09:37:30.340Z,951.392395
2023-11-25T09:38:32.473Z,951.4432983
2023-11-25T09:39:35.113Z,951.4543457
2023-11-25T09:41:07.953Z,951.5075073
2023-11-25T09:42:09.750Z,951.4827881
2023-11-25T09:43:11.919Z,951.5292969
2023-11-25T09:44:13.624Z,951.4949951
2023-11-25T09:45:15.483Z,951.5075073
2023-11-25T09:46:16.489Z,951.5339355
2023-11-25T09:47:17.772Z,951.5460815
2023-11-25T09:48:19.649Z,951.5504761
2023-11-25T09:49:21.607Z,951.5901489
2023-11-25T09:50:23.612Z,951.6134644
2023-11-25T09:51:25.142Z,951.595459
2023-11-25T09:52:27.181Z,951.5388794
2023-11-25T09:53:28.646Z,951.538147
2023-11-25T09:54:32.594Z,951.4597168
2023-11-25T09:55:32.224Z,951.5222168
2023-11-25T09:56:33.883Z,951.5473633
2023-11-25T09:58:06.636Z,951.5764771
2023-11-25T09:59:08.818Z,951.5948486
2023-11-25T10:00:10.726Z,951.6194458
2023-11-25T10:01:11.861Z,951.5621948
2023-11-25T10:02:13.725Z,951.6012573
2023-11-25T10:03:15.628Z,951.5724487
2023-11-25T10:04:17.266Z,951.5454712
2023-11-25T10:05:18.645Z,951.5625
2023-11-25T10:06:20.607Z,951.5665894
2023-11-25T10:07:22.210Z,951.6383057
2023-11-25T10:08:24.508Z,951.6687012
2023-11-25T10:09:26.153Z,951.642334
2023-11-25T10:10:28.240Z,951.651001
2023-11-25T10:11:29.668Z,951.6299438
2023-11-25T10:12:32.238Z,951.6729736
2023-11-25T10:13:34.139Z,951.6381226
2023-11-25T10:15:07.724Z,951.5982666
2023-11-25T10:16:09.210Z,951.6154785
2023-11-25T10:17:11.105Z,951.6401367
2023-11-25T10:18:12.603Z,951.7029419
2023-11-25T10:19:14.607Z,951.6837769
2023-11-25T10:20:17.660Z,951.6994629
2023-11-25T10:21:17.899Z,951.6710205
2023-11-25T10:22:19.767Z,951.5809326
2023-11-25T10:23:21.982Z,951.5778198
2023-11-25T10:24:23.644Z,951.5748291
2023-11-25T10:25:25.392Z,951.5406494
2023-11-25T10:26:27.075Z,951.5440674
2023-11-25T10:27:28.560Z,951.5256348
2023-11-25T10:28:30.406Z,951.5412598
2023-11-25T10:29:33.150Z,951.5476685
2023-11-25T10:31:05.910Z,951.5731201
2023-11-25T10:32:08.124Z,951.5273438
2023-11-25T10:33:10.100Z,951.5562744
2023-11-25T10:34:11.706Z,951.6032104
2023-11-25T10:35:13.616Z,951.6638794
2023-11-25T10:36:15.141Z,951.651123
2023-11-25T10:37:19.106Z,951.6397095
2023-11-25T10:38:18.724Z,951.6281128
2023-11-25T10:39:20.189Z,951.5953369
2023-11-25T10:40:22.187Z,951.5859985
2023-11-25T10:41:23.645Z,951.5731812
2023-11-25T10:42:25.652Z,951.5284424
2023-11-25T10:43:58.694Z,951.4679565
2023-11-25T10:45:30.957Z,951.4654541
2023-11-25T10:46:32.614Z,951.4953613
2023-11-25T10:48:06.163Z,951.5045166
2023-11-25T10:49:07.612Z,951.4725952
2023-11-25T10:50:09.525Z,951.4812012
2023-11-25T10:51:11.181Z,951.4191895
2023-11-25T10:52:12.660Z,951.4209595
2023-11-25T10:53:14.437Z,951.3748169
2023-11-25T10:54:16.115Z,951.4096069
2023-11-25T10:55:17.652Z,951.3990479
2023-11-25T10:56:19.452Z,951.4196167
2023-11-25T10:57:21.184Z,951.4526367
2023-11-25T10:58:23.889Z,951.4245605
2023-11-25T10:59:25.584Z,951.3693848
2023-11-25T11:00:27.168Z,951.3478394
2023-11-25T11:01:29.160Z,951.2938843
2023-11-25T11:02:31.714Z,951.2608032
2023-11-25T11:03:33.637Z,951.2503052
2023-11-25T11:05:06.154Z,951.2628174
2023-11-25T11:06:38.233Z,951.3546753
2023-11-25T11:08:11.239Z,951.3685303
2023-11-25T11:09:13.026Z,951.3546753
2023-11-25T11:10:14.609Z,951.3148193
2023-11-25T11:11:16.217Z,951.314209
2023-11-25T11:12:18.831Z,951.3297119
2023-11-25T11:13:20.578Z,951.2952271
2023-11-25T11:14:21.508Z,951.2616577
2023-11-25T11:15:24.420Z,951.3029785
2023-11-25T11:16:25.522Z,951.2608032
2023-11-25T11:17:26.533Z,951.3145142
2023-11-25T11:18:28.194Z,951.3157959
2023-11-25T11:19:30.132Z,951.274353
2023-11-25T11:20:32.623Z,951.1921387
2023-11-25T11:22:04.866Z,951.1751709
2023-11-25T11:23:06.539Z,951.1864014
2023-11-25T11:24:08.243Z,951.2231445
2023-11-25T11:25:11.124Z,951.1828003
2023-11-25T11:26:12.619Z,951.1427612
2023-11-25T11:27:15.795Z,951.1398315
2023-11-25T11:28:16.103Z,951.1453247
2023-11-25T11:29:17.045Z,951.1774292
2023-11-25T11:30:17.927Z,951.1841431
2023-11-25T11:31:19.930Z,951.1154785
2023-11-25T11:32:21.702Z,951.125
2023-11-25T11:33:23.611Z,951.1373291
2023-11-25T11:34:25.109Z,951.0945435
2023-11-25T11:35:26.611Z,951.0842285
2023-11-25T11:36:28.457Z,951.0490723
2023-11-25T11:37:30.421Z,951.0368652
2023-11-25T11:38:32.420Z,951.1087646
2023-11-25T11:40:05.196Z,951.0371704